Time;durP1;ratioP1;P1;durP2;ratioP2;P2;SDS_P1;SDS_P2;PMS_P1;PMS_P2;Temp;Humidity;BMP_temperature;BMP_pressure;BME280_temperature;BME280_humidity;BME280_pressure;Samples;Min_cycle;Max_cycle;Signal;HPM_P1;HPM_P2
2022/06/30 00:00:36;;;;;;;19.63;11.02;;;21.90;93.60;;;;;;5022389;28;20068;-73
2022/06/30 00:03:02;;;;;;;16.73;8.75;;;21.90;93.70;;;;;;5020940;28;20463;-70
2022/06/30 00:05:29;;;;;;;17.67;9.43;;;22.00;93.80;;;;;;5023146;28;20021;-71
2022/06/30 00:07:55;;;;;;;19.10;9.63;;;22.00;93.90;;;;;;5021794;28;20368;-69
2022/06/30 00:10:22;;;;;;;18.15;9.98;;;22.00;94.00;;;;;;5020889;28;20061;-71
2022/06/30 00:12:48;;;;;;;14.18;8.73;;;22.00;94.10;;;;;;5020979;28;20024;-73
2022/06/30 00:15:13;;;;;;;17.70;8.68;;;22.00;94.00;;;;;;5021845;28;20155;-69
2022/06/30 00:17:39;;;;;;;15.05;8.50;;;22.00;94.00;;;;;;5022544;28;20026;-72
2022/06/30 00:20:06;;;;;;;18.52;10.00;;;22.10;94.10;;;;;;5020545;28;20057;-68
2022/06/30 00:22:32;;;;;;;20.30;9.63;;;22.00;94.00;;;;;;5021874;28;20100;-73
2022/06/30 00:24:58;;;;;;;18.33;9.95;;;22.10;94.10;;;;;;5022220;28;20432;-70
2022/06/30 00:27:24;;;;;;;18.17;10.25;;;22.10;94.10;;;;;;5020525;28;20037;-70
2022/06/30 00:29:49;;;;;;;18.55;9.93;;;22.10;94.20;;;;;;5022163;28;20025;-69
2022/06/30 00:32:15;;;;;;;16.77;9.85;;;22.10;94.10;;;;;;5021809;28;20040;-73
2022/06/30 00:34:41;;;;;;;23.88;12.80;;;22.10;94.20;;;;;;5020521;28;20042;-71
2022/06/30 00:37:07;;;;;;;27.90;13.68;;;22.10;94.00;;;;;;5022373;28;20070;-72
2022/06/30 00:39:33;;;;;;;21.13;11.93;;;22.10;93.80;;;;;;5021385;28;20479;-73
2022/06/30 00:41:59;;;;;;;19.65;11.40;;;22.10;93.70;;;;;;5019687;28;20017;-71
2022/06/30 00:44:25;;;;;;;22.83;13.20;;;22.10;93.70;;;;;;5022382;28;20068;-71
2022/06/30 00:46:51;;;;;;;26.48;12.75;;;22.00;93.60;;;;;;5020069;28;20467;-72
2022/06/30 00:49:18;;;;;;;22.70;12.02;;;22.00;93.60;;;;;;5021119;28;20433;-72
2022/06/30 00:51:44;;;;;;;23.40;11.20;;;22.00;93.80;;;;;;5022551;28;20053;-70
2022/06/30 00:54:12;;;;;;;19.30;10.38;;;22.00;93.70;;;;;;5021350;28;20056;-70
2022/06/30 00:56:42;;;;;;;22.20;10.55;;;22.00;93.80;;;;;;5020968;28;20013;-70
2022/06/30 00:59:09;;;;;;;23.08;10.80;;;22.00;93.80;;;;;;5020602;28;20021;-72
2022/06/30 01:01:37;;;;;;;22.88;10.68;;;22.00;93.70;;;;;;5021090;28;20026;-72
2022/06/30 01:04:03;;;;;;;22.15;11.63;;;21.90;93.70;;;;;;5023485;28;20092;-72
2022/06/30 01:06:29;;;;;;;19.52;10.70;;;21.90;93.70;;;;;;5020623;28;20239;-73
2022/06/30 01:08:57;;;;;;;18.25;9.77;;;21.90;93.60;;;;;;5019842;28;20030;-73
2022/06/30 01:14:07;;;;;;;18.85;11.40;;;21.80;93.60;;;;;;5020368;28;20033;-73
2022/06/30 01:16:37;;;;;;;21.17;10.35;;;21.70;93.60;;;;;;5020128;28;20027;-71
2022/06/30 01:19:03;;;;;;;15.55;9.82;;;21.70;93.60;;;;;;5022204;28;20029;-72
2022/06/30 01:21:29;;;;;;;15.02;9.27;;;21.70;93.60;;;;;;5023828;28;20026;-72
2022/06/30 01:23:55;;;;;;;17.02;9.63;;;21.60;93.60;;;;;;5024971;28;20088;-72
2022/06/30 01:26:23;;;;;;;21.80;12.25;;;21.60;93.60;;;;;;5025954;28;20024;-72
2022/06/30 01:28:50;;;;;;;17.30;10.95;;;21.60;93.60;;;;;;5023870;28;20108;-71
2022/06/30 01:31:16;;;;;;;15.38;9.95;;;21.50;93.60;;;;;;5026581;28;20072;-70
2022/06/30 01:33:42;;;;;;;17.10;10.10;;;21.50;93.70;;;;;;5023880;28;20443;-73
2022/06/30 01:36:08;;;;;;;20.17;10.57;;;21.50;93.70;;;;;;5025706;28;20101;-71
2022/06/30 01:38:34;;;;;;;14.98;9.10;;;21.50;93.70;;;;;;5024742;28;20368;-69
2022/06/30 01:40:59;;;;;;;13.32;8.13;;;21.50;93.70;;;;;;5024013;28;20029;-71
2022/06/30 01:43:25;;;;;;;13.65;8.45;;;21.40;93.70;;;;;;5025731;28;20025;-73
2022/06/30 01:45:51;;;;;;;13.30;8.50;;;21.40;93.70;;;;;;5024122;28;20041;-69
2022/06/30 01:48:17;;;;;;;16.45;8.88;;;21.40;93.80;;;;;;5026363;28;20030;-71
2022/06/30 01:50:43;;;;;;;13.75;9.77;;;21.40;93.90;;;;;;5023865;28;20014;-69
2022/06/30 01:53:09;;;;;;;15.10;8.98;;;21.40;94.00;;;;;;5025240;28;20483;-74
2022/06/30 01:55:34;;;;;;;15.40;8.65;;;21.40;94.10;;;;;;5023307;28;20056;-68
2022/06/30 01:58:00;;;;;;;15.50;9.15;;;21.40;94.20;;;;;;5023551;28;20156;-71
2022/06/30 02:00:27;;;;;;;14.15;8.55;;;21.40;94.10;;;;;;5024098;28;20076;-74
2022/06/30 02:02:54;;;;;;;16.55;8.70;;;21.50;94.20;;;;;;5024071;28;20029;-72
2022/06/30 02:05:21;;;;;;;16.10;8.73;;;21.50;94.30;;;;;;5025140;28;20501;-70
2022/06/30 02:07:47;;;;;;;14.18;8.73;;;21.50;94.30;;;;;;5023187;28;20484;-73
2022/06/30 02:10:18;;;;;;;12.45;8.10;;;21.50;94.30;;;;;;5024536;28;20028;-71
2022/06/30 02:12:47;;;;;;;20.23;9.18;;;21.50;94.30;;;;;;5025348;28;20044;-69
2022/06/30 02:15:33;;;;;;;11.55;7.65;;;21.50;94.30;;;;;;5022658;28;20356;-70
2022/06/30 02:18:01;;;;;;;12.18;7.10;;;21.60;94.30;;;;;;5024736;28;20022;-72
2022/06/30 02:20:27;;;;;;;19.42;8.30;;;21.60;94.20;;;;;;5022862;28;20018;-71
2022/06/30 02:22:58;;;;;;;13.52;7.47;;;21.60;94.10;;;;;;5024213;28;20020;-71
2022/06/30 02:25:27;;;;;;;12.70;8.10;;;21.50;94.10;;;;;;5023600;28;20068;-70
2022/06/30 02:27:53;;;;;;;10.75;7.55;;;21.60;94.10;;;;;;5023727;28;20467;-71
2022/06/30 02:30:19;;;;;;;9.52;6.35;;;21.60;94.20;;;;;;5021841;28;20029;-72
2022/06/30 02:32:46;;;;;;;15.68;7.78;;;21.60;94.40;;;;;;5023555;28;20408;-71
2022/06/30 02:35:12;;;;;;;12.00;7.93;;;21.60;94.50;;;;;;5023364;28;20068;-73
2022/06/30 02:37:38;;;;;;;15.10;8.43;;;21.60;94.50;;;;;;5023182;28;20036;-71
2022/06/30 02:40:05;;;;;;;16.85;8.40;;;21.70;94.60;;;;;;5024553;28;20027;-70
2022/06/30 02:42:31;;;;;;;13.75;7.68;;;21.70;94.50;;;;;;5023131;28;20048;-71
2022/06/30 02:44:57;;;;;;;20.15;9.43;;;21.70;94.40;;;;;;5022992;28;20029;-72
2022/06/30 02:47:30;;;;;;;18.08;8.85;;;21.70;94.30;;;;;;5024767;28;20430;-70
2022/06/30 02:49:56;;;;;;;15.55;9.32;;;21.70;94.20;;;;;;5023643;28;20022;-71
2022/06/30 02:52:21;;;;;;;14.20;8.90;;;21.70;94.00;;;;;;5021165;28;20116;-73
2022/06/30 02:54:47;;;;;;;12.40;8.07;;;21.70;94.00;;;;;;5024377;28;20383;-73
2022/06/30 02:57:13;;;;;;;14.60;8.38;;;21.70;94.10;;;;;;5023165;28;20100;-70
2022/06/30 02:59:39;;;;;;;11.32;7.78;;;21.80;94.10;;;;;;5022524;28;20028;-71
2022/06/30 03:02:04;;;;;;;10.27;7.20;;;21.80;94.20;;;;;;5026704;28;20022;-71
2022/06/30 03:04:30;;;;;;;10.07;7.22;;;21.80;94.30;;;;;;5022559;28;20056;-69
2022/06/30 03:06:56;;;;;;;10.60;6.97;;;21.80;94.30;;;;;;5021624;28;20029;-74
2022/06/30 03:09:23;;;;;;;17.10;8.70;;;21.90;94.40;;;;;;5022782;28;20476;-70
2022/06/30 03:11:49;;;;;;;12.35;8.57;;;21.90;94.40;;;;;;5022179;28;20028;-72
2022/06/30 03:14:15;;;;;;;15.40;7.75;;;21.90;94.30;;;;;;5022914;28;20026;-69
2022/06/30 03:16:41;;;;;;;14.40;8.65;;;21.90;94.40;;;;;;5023830;28;20659;-69
2022/06/30 03:19:07;;;;;;;12.23;8.30;;;21.90;94.40;;;;;;5021703;28;20076;-69
2022/06/30 03:21:32;;;;;;;14.50;8.07;;;21.90;94.40;;;;;;5023082;28;20027;-71
2022/06/30 03:23:58;;;;;;;23.13;8.10;;;21.90;94.30;;;;;;5023236;28;20052;-72
2022/06/30 03:26:24;;;;;;;10.40;7.22;;;22.00;94.40;;;;;;5021650;28;20022;-71
2022/06/30 03:28:50;;;;;;;13.77;8.32;;;22.00;94.40;;;;;;5023238;28;20379;-71
2022/06/30 03:31:16;;;;;;;10.70;7.75;;;21.90;94.40;;;;;;5023905;28;20133;-73
2022/06/30 03:33:42;;;;;;;14.23;6.78;;;22.00;94.30;;;;;;5021502;28;20433;-70
2022/06/30 03:36:08;;;;;;;8.77;6.80;;;22.00;94.20;;;;;;5021511;28;20109;-71
2022/06/30 03:38:34;;;;;;;10.25;6.93;;;22.00;94.30;;;;;;5022580;28;20018;-69
2022/06/30 03:41:00;;;;;;;9.98;6.65;;;22.00;94.30;;;;;;5023043;28;20494;-73
2022/06/30 03:43:25;;;;;;;8.27;7.05;;;22.00;94.20;;;;;;5020803;28;20552;-70
2022/06/30 03:45:51;;;;;;;9.23;7.03;;;22.00;94.20;;;;;;5022724;28;20550;-73
2022/06/30 03:48:17;;;;;;;10.02;7.30;;;22.00;94.20;;;;;;5022648;28;20472;-70
2022/06/30 03:50:43;;;;;;;10.32;7.70;;;22.10;94.10;;;;;;5021149;28;20032;-71
2022/06/30 03:53:09;;;;;;;13.10;7.70;;;22.00;94.00;;;;;;5021607;28;20355;-70
2022/06/30 03:55:38;;;;;;;11.15;7.63;;;22.00;94.00;;;;;;5022225;28;20029;-72
2022/06/30 03:58:07;;;;;;;9.55;7.50;;;22.00;93.80;;;;;;5019700;28;20026;-71
2022/06/30 04:00:35;;;;;;;11.60;8.63;;;22.00;93.90;;;;;;5022772;28;20025;-69
2022/06/30 04:03:04;;;;;;;11.98;7.70;;;22.00;94.10;;;;;;5021591;28;20021;-73
2022/06/30 04:05:30;;;;;;;14.27;8.55;;;22.00;93.80;;;;;;5021303;28;20022;-69
2022/06/30 04:07:55;;;;;;;11.15;7.75;;;21.90;93.80;;;;;;5021812;28;20451;-70
2022/06/30 04:10:21;;;;;;;10.85;7.30;;;21.90;93.90;;;;;;5022794;28;20026;-70
2022/06/30 04:12:47;;;;;;;14.10;7.70;;;22.00;94.10;;;;;;5021005;28;20022;-69
2022/06/30 04:15:13;;;;;;;32.40;13.68;;;22.00;94.20;;;;;;5022149;28;20475;-72
2022/06/30 04:17:39;;;;;;;27.60;12.43;;;22.00;94.40;;;;;;5022203;28;20332;-72
2022/06/30 04:20:15;;;;;;;52.30;19.30;;;22.00;94.50;;;;;;5020388;28;20018;-69
2022/06/30 04:22:43;;;;;;;73.03;25.02;;;22.10;94.60;;;;;;5022693;28;20104;-72
2022/06/30 04:25:09;;;;;;;65.75;23.48;;;22.20;94.60;;;;;;5020371;28;20181;-70
2022/06/30 04:27:36;;;;;;;70.47;25.52;;;22.20;94.70;;;;;;5021910;28;20396;-70
2022/06/30 04:30:01;;;;;;;73.07;26.55;;;22.30;94.70;;;;;;5022080;28;20513;-73
2022/06/30 04:32:39;;;;;;;70.95;25.80;;;22.30;94.70;;;;;;5020799;28;20025;-72
2022/06/30 04:35:08;;;;;;;68.25;24.80;;;22.30;94.90;;;;;;5021942;28;20112;-70
2022/06/30 04:37:34;;;;;;;71.43;26.25;;;22.40;95.20;;;;;;5021018;28;20025;-72
2022/06/30 04:42:44;;;;;;;73.75;30.20;;;22.60;95.60;;;;;;5019986;28;20148;-69
2022/06/30 04:45:10;;;;;;;93.25;38.05;;;22.80;95.70;;;;;;5022163;28;20199;-71
2022/06/30 04:47:37;;;;;;;92.10;39.10;;;22.80;95.50;;;;;;5020190;28;20514;-72
2022/06/30 04:50:04;;;;;;;76.22;35.92;;;22.80;94.80;;;;;;5021530;28;20021;-73
2022/06/30 04:52:30;;;;;;;66.90;32.33;;;22.90;94.70;;;;;;5021117;28;20033;-72
2022/06/30 04:54:56;;;;;;;74.10;32.90;;;22.90;94.90;;;;;;5021429;28;20372;-70
2022/06/30 04:57:22;;;;;;;82.13;35.55;;;23.00;95.10;;;;;;5026530;28;20037;-70
2022/06/30 04:59:47;;;;;;;71.20;36.97;;;23.00;94.60;;;;;;5024205;28;20475;-72
2022/06/30 05:02:13;;;;;;;73.05;34.00;;;23.00;94.00;;;;;;5026424;28;20034;-72
2022/06/30 05:04:39;;;;;;;61.58;31.05;;;23.00;94.40;;;;;;5024211;28;20101;-73
2022/06/30 05:07:05;;;;;;;56.55;29.98;;;23.10;94.30;;;;;;5024447;28;20076;-69
2022/06/30 05:09:31;;;;;;;57.50;29.27;;;23.10;94.40;;;;;;5025388;28;20030;-72
2022/06/30 05:11:56;;;;;;;57.15;28.08;;;23.10;94.40;;;;;;5026962;28;20043;-72
2022/06/30 05:14:22;;;;;;;66.88;30.85;;;23.10;94.40;;;;;;5024812;28;20057;-72
2022/06/30 05:16:48;;;;;;;67.53;31.67;;;23.10;94.40;;;;;;5023918;28;20545;-69
2022/06/30 05:19:14;;;;;;;65.30;30.20;;;23.20;94.40;;;;;;5024688;28;20017;-73
2022/06/30 05:21:40;;;;;;;60.80;28.63;;;23.20;94.40;;;;;;5024173;28;20383;-71
2022/06/30 05:26:50;;;;;;;59.72;28.20;;;23.20;94.70;;;;;;5025980;28;20033;-71
2022/06/30 05:29:16;;;;;;;68.88;30.52;;;23.20;94.80;;;;;;5029109;28;20034;-71
2022/06/30 05:31:42;;;;;;;71.03;30.63;;;23.30;94.70;;;;;;5024825;28;20391;-73
2022/06/30 05:34:08;;;;;;;62.03;26.92;;;23.30;94.60;;;;;;5030249;28;20033;-70
2022/06/30 05:36:33;;;;;;;67.68;28.67;;;23.30;94.60;;;;;;5023781;28;20553;-73
2022/06/30 05:38:59;;;;;;;61.03;27.58;;;23.40;94.60;;;;;;5025553;28;20097;-69
2022/06/30 05:41:25;;;;;;;55.58;25.55;;;23.40;94.80;;;;;;5024858;28;20472;-69
2022/06/30 05:43:52;;;;;;;67.10;26.17;;;23.40;94.60;;;;;;5025227;28;20029;-73
2022/06/30 05:46:18;;;;;;;63.67;28.20;;;23.50;94.80;;;;;;5028164;28;20048;-70
2022/06/30 05:48:44;;;;;;;55.00;24.92;;;23.50;94.50;;;;;;5021335;28;20108;-72
2022/06/30 05:51:10;;;;;;;57.05;25.17;;;23.60;94.70;;;;;;5021785;28;20160;-72
2022/06/30 05:53:36;;;;;;;53.78;24.67;;;23.70;94.50;;;;;;5028275;28;20460;-71
2022/06/30 05:56:02;;;;;;;50.80;23.40;;;23.70;94.80;;;;;;5025126;28;20034;-71
2022/06/30 05:58:28;;;;;;;55.10;24.58;;;23.80;95.00;;;;;;5026178;28;20029;-73
2022/06/30 06:00:54;;;;;;;46.70;23.80;;;24.00;95.40;;;;;;5023904;28;20024;-70
2022/06/30 06:03:20;;;;;;;56.13;25.33;;;24.10;94.90;;;;;;5023366;28;20017;-72
2022/06/30 06:05:46;;;;;;;48.42;23.83;;;24.10;94.80;;;;;;5017584;28;20029;-74
2022/06/30 06:08:15;;;;;;;43.58;22.58;;;24.20;94.90;;;;;;5015851;28;20018;-72
2022/06/30 06:10:41;;;;;;;50.75;23.42;;;24.30;94.70;;;;;;5022640;28;20030;-71
2022/06/30 06:13:09;;;;;;;46.08;23.88;;;24.30;94.10;;;;;;5020167;28;20022;-72
2022/06/30 06:15:35;;;;;;;52.35;26.73;;;24.40;94.30;;;;;;5027010;28;20108;-69
2022/06/30 06:18:01;;;;;;;50.35;23.45;;;24.40;93.70;;;;;;5024610;28;20057;-72
2022/06/30 06:20:27;;;;;;;48.17;23.60;;;24.40;93.90;;;;;;5021907;28;20025;-70
2022/06/30 06:22:52;;;;;;;59.28;24.90;;;24.50;94.50;;;;;;5029651;28;20036;-70
2022/06/30 06:25:19;;;;;;;42.85;22.20;;;24.60;94.50;;;;;;5034936;28;20049;-70
2022/06/30 06:29:05;;;;;;;43.35;22.13;;;24.70;94.70;;;;;;5033921;28;20018;-73
2022/06/30 06:30:33;;;;;;;41.22;22.50;;;24.80;94.60;;;;;;5031482;28;20025;-71
2022/06/30 06:32:59;;;;;;;39.40;20.63;;;24.80;94.30;;;;;;5032535;28;20104;-70
2022/06/30 06:35:26;;;;;;;42.25;21.73;;;24.90;94.00;;;;;;5031779;28;20034;-73
2022/06/30 06:37:52;;;;;;;43.72;22.95;;;24.90;94.30;;;;;;5020779;28;20106;-70
2022/06/30 06:40:17;;;;;;;38.20;20.67;;;24.90;93.40;;;;;;5024234;28;20108;-72
2022/06/30 06:42:43;;;;;;;37.75;19.33;;;24.90;93.60;;;;;;5034262;28;20024;-72
2022/06/30 06:45:09;;;;;;;45.22;23.08;;;25.00;94.10;;;;;;5034473;28;20065;-70
2022/06/30 06:47:35;;;;;;;47.17;24.45;;;25.00;93.50;;;;;;5033294;28;20030;-71
2022/06/30 06:50:01;;;;;;;40.15;23.23;;;25.00;92.90;;;;;;5033943;28;20032;-71
2022/06/30 06:52:27;;;;;;;37.30;21.52;;;25.00;92.90;;;;;;5034306;28;20021;-73
2022/06/30 06:54:53;;;;;;;40.40;21.92;;;25.00;93.40;;;;;;5033402;28;20018;-70
2022/06/30 06:57:19;;;;;;;42.70;22.50;;;25.10;93.70;;;;;;5034746;28;20048;-73
2022/06/30 06:59:45;;;;;;;46.53;23.10;;;25.20;93.90;;;;;;5034596;28;20026;-71
2022/06/30 07:02:10;;;;;;;47.10;24.45;;;25.20;93.40;;;;;;5034635;28;20029;-71
2022/06/30 07:04:36;;;;;;;44.75;23.40;;;25.30;93.60;;;;;;5034587;28;20498;-73
2022/06/30 07:07:02;;;;;;;49.20;24.00;;;25.30;93.90;;;;;;5034508;28;20021;-73
2022/06/30 07:09:29;;;;;;;46.75;24.23;;;25.50;94.40;;;;;;5033336;28;20053;-73
2022/06/30 07:11:55;;;;;;;40.75;23.42;;;25.50;94.40;;;;;;5034421;28;20025;-71
2022/06/30 07:14:21;;;;;;;45.88;25.02;;;25.60;94.10;;;;;;5033370;28;20025;-73
2022/06/30 07:16:47;;;;;;;46.33;23.02;;;25.70;93.60;;;;;;5034070;28;20086;-69
2022/06/30 07:19:13;;;;;;;40.58;21.10;;;25.60;92.90;;;;;;5033514;28;20057;-72
2022/06/30 07:21:38;;;;;;;46.13;24.30;;;25.70;93.40;;;;;;5032834;28;20052;-73
2022/06/30 07:24:04;;;;;;;43.28;24.42;;;25.80;93.50;;;;;;5034155;28;20025;-73
2022/06/30 07:26:30;;;;;;;47.50;24.75;;;25.80;93.40;;;;;;5034150;28;20409;-69
2022/06/30 07:28:56;;;;;;;45.60;26.23;;;25.90;93.70;;;;;;5034086;28;20033;-72
2022/06/30 07:31:23;;;;;;;45.08;26.48;;;26.00;93.70;;;;;;5033602;28;20525;-72
2022/06/30 07:33:49;;;;;;;47.35;27.10;;;26.10;94.10;;;;;;5032633;28;20033;-71
2022/06/30 07:36:16;;;;;;;55.15;29.35;;;26.20;94.20;;;;;;5033931;28;20100;-72
2022/06/30 07:38:43;;;;;;;48.78;28.00;;;26.30;94.30;;;;;;5033671;28;20033;-72
2022/06/30 07:41:08;;;;;;;44.55;26.15;;;26.30;93.40;;;;;;5033734;28;20018;-73
2022/06/30 07:43:34;;;;;;;49.03;28.73;;;26.40;93.70;;;;;;5033850;28;20151;-72
2022/06/30 07:46:00;;;;;;;49.20;28.48;;;26.50;94.10;;;;;;5033481;28;20045;-71
2022/06/30 07:48:27;;;;;;;57.65;30.13;;;26.60;94.50;;;;;;5033790;28;20100;-72
2022/06/30 07:50:53;;;;;;;44.92;27.27;;;26.70;94.60;;;;;;5033487;28;20017;-72
2022/06/30 07:53:19;;;;;;;49.45;28.77;;;26.90;95.10;;;;;;5033539;28;20026;-71
2022/06/30 07:55:45;;;;;;;41.78;25.50;;;27.00;93.30;;;;;;5033593;28;20026;-71
2022/06/30 07:58:10;;;;;;;44.15;26.10;;;27.00;93.50;;;;;;5033504;28;20017;-73
2022/06/30 08:00:36;;;;;;;49.15;29.20;;;27.20;93.50;;;;;;5032231;28;20025;-71
2022/06/30 08:03:03;;;;;;;51.13;30.83;;;27.20;93.30;;;;;;5033555;28;20028;-72
2022/06/30 08:05:28;;;;;;;47.95;28.13;;;27.30;93.30;;;;;;5033477;28;20045;-71
2022/06/30 08:07:54;;;;;;;50.05;30.42;;;27.40;93.80;;;;;;5033253;28;20467;-73
2022/06/30 08:10:20;;;;;;;49.90;31.02;;;27.60;94.00;;;;;;5033328;28;20025;-70
2022/06/30 08:12:46;;;;;;;54.38;32.35;;;27.70;93.60;;;;;;5032051;28;20047;-73
2022/06/30 08:15:12;;;;;;;54.85;33.67;;;27.90;94.00;;;;;;5033369;28;20029;-73
2022/06/30 08:17:39;;;;;;;50.00;32.40;;;28.00;94.20;;;;;;5033284;28;20026;-74
2022/06/30 08:20:05;;;;;;;53.35;34.90;;;28.00;92.40;;;;;;5033215;28;20025;-73
2022/06/30 08:22:31;;;;;;;63.55;38.17;;;28.00;91.60;;;;;;5033164;28;20053;-73
2022/06/30 08:24:57;;;;;;;62.38;38.13;;;28.00;90.20;;;;;;5033135;28;20045;-74
2022/06/30 08:27:23;;;;;;;55.78;34.97;;;27.90;89.90;;;;;;5033121;28;20018;-72
2022/06/30 08:29:49;;;;;;;58.22;36.90;;;27.90;89.10;;;;;;5032835;28;20026;-71
2022/06/30 08:32:14;;;;;;;61.38;39.28;;;27.70;88.00;;;;;;5032987;28;20029;-73
2022/06/30 08:34:41;;;;;;;66.28;42.80;;;27.60;87.30;;;;;;5032994;28;20025;-70
2022/06/30 08:37:08;;;;;;;63.70;43.00;;;27.50;86.30;;;;;;5032921;28;20480;-72
2022/06/30 08:42:20;;;;;;;61.97;39.25;;;27.30;86.10;;;;;;5033005;28;20168;-69
2022/06/30 08:47:32;;;;;;;69.05;42.35;;;27.00;86.90;;;;;;5033161;28;20510;-73
2022/06/30 08:49:58;;;;;;;77.40;43.88;;;26.90;88.00;;;;;;5032663;28;20029;-74
2022/06/30 08:52:26;;;;;;;64.07;39.00;;;26.90;87.70;;;;;;5032676;28;20498;-73
2022/06/30 08:54:53;;;;;;;65.57;41.95;;;26.90;87.70;;;;;;5032878;28;20029;-71
2022/06/30 08:57:20;;;;;;;58.13;36.42;;;26.80;87.00;;;;;;5032813;28;20021;-73
2022/06/30 08:59:46;;;;;;;63.58;38.10;;;26.70;87.40;;;;;;5032655;28;20113;-72
2022/06/30 09:02:13;;;;;;;58.70;35.80;;;26.70;86.90;;;;;;5032631;28;20025;-73
2022/06/30 09:04:38;;;;;;;57.08;33.78;;;26.60;88.10;;;;;;5032533;28;20098;-70
2022/06/30 09:07:04;;;;;;;59.72;35.70;;;26.70;88.40;;;;;;5031447;28;20026;-72
2022/06/30 09:09:30;;;;;;;66.22;39.92;;;26.60;86.50;;;;;;5031446;28;20025;-69
2022/06/30 09:11:57;;;;;;;52.13;32.10;;;26.60;86.70;;;;;;5032630;28;20105;-72
2022/06/30 09:14:40;;;;;;;51.55;31.10;;;26.70;88.90;;;;;;5032598;28;20053;-72
2022/06/30 09:17:09;;;;;;;60.78;36.40;;;26.60;88.70;;;;;;5032622;28;20048;-72
2022/06/30 09:19:41;;;;;;;77.35;45.78;;;26.70;87.70;;;;;;5032472;28;20029;-74
2022/06/30 09:22:10;;;;;;;78.35;48.85;;;26.70;87.90;;;;;;5032546;28;20014;-73
2022/06/30 09:24:36;;;;;;;64.68;40.63;;;26.80;87.30;;;;;;5032536;28;20017;-72
2022/06/30 09:27:20;;;;;;;79.53;47.70;;;26.80;87.00;;;;;;5032501;28;20034;-70
2022/06/30 09:30:09;;;;;;;78.28;49.20;;;26.90;88.20;;;;;;5031128;28;20055;-72
2022/06/30 09:33:04;;;;;;;82.13;51.63;;;27.00;87.70;;;;;;5032051;28;20037;-72
2022/06/30 09:35:30;;;;;;;89.38;51.28;;;27.00;87.60;;;;;;5032166;28;20108;-71
2022/06/30 09:38:05;;;;;;;80.78;49.55;;;27.00;83.40;;;;;;5032457;28;20022;-72
2022/06/30 09:40:37;;;;;;;78.15;49.20;;;27.10;82.80;;;;;;5032676;28;20029;-72
2022/06/30 09:43:05;;;;;;;75.28;46.28;;;27.20;85.60;;;;;;5036114;28;20025;-73
2022/06/30 09:45:37;;;;;;;76.00;47.65;;;27.30;84.50;;;;;;5035882;28;20049;-70
2022/06/30 09:48:04;;;;;;;77.63;45.22;;;27.30;80.90;;;;;;5036036;28;20022;-71
2022/06/30 09:50:30;;;;;;;67.68;44.38;;;27.30;77.80;;;;;;5035828;28;20486;-71
2022/06/30 09:53:05;;;;;;;71.15;41.88;;;27.30;77.90;;;;;;5035838;28;20128;-72
2022/06/30 09:56:09;;;;;;;62.67;38.67;;;27.30;78.30;;;;;;5035795;28;20665;-70
2022/06/30 09:58:38;;;;;;;57.65;34.55;;;27.30;78.90;;;;;;5035783;28;20025;-71
2022/06/30 10:01:04;;;;;;;53.50;34.50;;;27.50;80.90;;;;;;5035733;28;20100;-73
2022/06/30 10:03:30;;;;;;;56.13;32.88;;;27.40;81.10;;;;;;5035623;28;20104;-72
2022/06/30 10:06:14;;;;;;;55.85;31.50;;;27.50;79.60;;;;;;5035700;28;20489;-73
2022/06/30 10:08:40;;;;;;;48.13;30.20;;;27.60;79.50;;;;;;5035736;28;20025;-72
2022/06/30 10:11:06;;;;;;;43.70;28.63;;;27.60;78.70;;;;;;5034297;28;20404;-70
2022/06/30 10:13:35;;;;;;;50.35;29.05;;;27.70;81.50;;;;;;5035528;28;20080;-71
2022/06/30 10:16:05;;;;;;;40.70;26.50;;;27.70;79.60;;;;;;5035489;28;20087;-72
2022/06/30 10:18:35;;;;;;;48.88;29.13;;;27.90;80.60;;;;;;5035379;28;20029;-73
2022/06/30 10:21:01;;;;;;;47.83;30.33;;;27.90;79.40;;;;;;5035604;28;20091;-71
2022/06/30 10:23:27;;;;;;;47.88;28.60;;;27.90;78.50;;;;;;5035362;28;20032;-73
2022/06/30 10:25:55;;;;;;;44.65;28.35;;;28.00;77.90;;;;;;5034022;28;20025;-71
2022/06/30 10:28:25;;;;;;;47.70;29.80;;;28.00;79.50;;;;;;5035208;28;20025;-72
2022/06/30 10:30:54;;;;;;;44.95;29.05;;;28.10;76.30;;;;;;5035341;28;20041;-71
2022/06/30 10:33:39;;;;;;;47.03;28.02;;;28.10;74.90;;;;;;5034646;28;20088;-71
2022/06/30 10:36:32;;;;;;;42.20;28.50;;;28.10;74.90;;;;;;5035078;28;20032;-73
2022/06/30 10:39:24;;;;;;;48.23;27.90;;;28.10;74.80;;;;;;5017085;28;20069;-73
2022/06/30 10:41:50;;;;;;;45.35;26.55;;;28.10;74.90;;;;;;5035159;28;20036;-72
2022/06/30 10:44:28;;;;;;;48.33;30.42;;;28.20;72.40;;;;;;5033565;28;20468;-72
2022/06/30 10:46:57;;;;;;;43.38;27.88;;;28.20;72.70;;;;;;5034973;28;20467;-71
2022/06/30 10:49:27;;;;;;;48.47;27.92;;;28.30;75.60;;;;;;5034617;28;20467;-72
2022/06/30 10:52:17;;;;;;;44.22;27.48;;;28.40;77.20;;;;;;5034617;28;20483;-72
2022/06/30 10:54:45;;;;;;;42.80;26.77;;;28.40;77.20;;;;;;5034823;28;20025;-72
2022/06/30 10:57:12;;;;;;;43.88;27.38;;;28.50;75.00;;;;;;5034740;28;20029;-72
2022/06/30 10:59:43;;;;;;;44.65;27.45;;;28.60;75.50;;;;;;5034667;28;20072;-72
2022/06/30 11:02:13;;;;;;;42.88;25.17;;;28.70;74.70;;;;;;5034461;28;20032;-71
2022/06/30 11:04:47;;;;;;;42.70;27.00;;;28.80;75.60;;;;;;5034464;28;20014;-73
2022/06/30 11:07:14;;;;;;;47.25;28.63;;;28.90;75.50;;;;;;5033305;28;20018;-72
2022/06/30 11:09:54;;;;;;;41.80;27.00;;;28.90;73.50;;;;;;5034374;28;20079;-73
2022/06/30 11:12:42;;;;;;;32.58;22.27;;;29.00;73.30;;;;;;5034318;28;20045;-72
2022/06/30 11:15:10;;;;;;;33.13;22.30;;;29.10;74.30;;;;;;5033895;28;20041;-71
2022/06/30 11:17:39;;;;;;;43.85;25.95;;;29.20;74.00;;;;;;5034266;28;20043;-71
2022/06/30 11:20:14;;;;;;;40.50;26.33;;;29.20;71.60;;;;;;5034180;28;20096;-69
2022/06/30 11:22:42;;;;;;;37.88;23.15;;;29.20;72.40;;;;;;5034124;28;20075;-69
2022/06/30 11:27:17;;;;;;;33.85;21.30;;;29.30;73.50;;;;;;5034130;28;20080;-70
2022/06/30 11:28:01;;;;;;;31.63;19.45;;;29.30;70.40;;;;;;5034042;28;20029;-71
2022/06/30 11:30:32;;;;;;;24.83;16.63;;;29.40;70.50;;;;;;5032839;28;20049;-70
2022/06/30 11:32:59;;;;;;;25.13;15.45;;;29.50;72.90;;;;;;5033939;28;20497;-70
2022/06/30 11:35:29;;;;;;;20.63;13.35;;;29.50;69.10;;;;;;5034024;28;20029;-70
2022/06/30 11:37:56;;;;;;;20.80;13.05;;;29.60;69.40;;;;;;5034068;28;20386;-71
2022/06/30 11:40:22;;;;;;;16.83;10.85;;;29.60;67.30;;;;;;5033870;28;20498;-70
2022/06/30 11:42:50;;;;;;;12.70;9.85;;;29.70;70.70;;;;;;5033879;28;20053;-69
2022/06/30 11:45:21;;;;;;;16.33;10.13;;;29.70;70.30;;;;;;5033639;28;20065;-71
2022/06/30 11:48:03;;;;;;;14.80;9.98;;;29.80;69.40;;;;;;5033660;28;20494;-70
2022/06/30 11:50:30;;;;;;;17.65;9.82;;;29.80;66.90;;;;;;5032746;28;20430;-72
2022/06/30 11:52:58;;;;;;;13.38;9.45;;;29.90;70.70;;;;;;5033691;28;20017;-71
2022/06/30 11:55:26;;;;;;;18.13;10.32;;;29.90;69.40;;;;;;5033663;28;20025;-70
2022/06/30 11:57:52;;;;;;;17.73;9.88;;;29.90;66.30;;;;;;5032294;28;20039;-69
2022/06/30 12:00:21;;;;;;;13.38;9.70;;;30.00;66.10;;;;;;5033436;28;20026;-71
2022/06/30 12:02:47;;;;;;;12.30;8.10;;;30.00;67.30;;;;;;5033398;28;20021;-71
2022/06/30 12:05:17;;;;;;;11.82;7.55;;;30.10;67.70;;;;;;5033051;28;20047;-72
2022/06/30 12:07:44;;;;;;;9.43;7.15;;;30.10;67.60;;;;;;5033324;28;20022;-70
2022/06/30 12:10:12;;;;;;;10.10;7.00;;;30.20;68.40;;;;;;5033564;28;20022;-71
2022/06/30 12:12:39;;;;;;;11.32;7.10;;;30.30;66.70;;;;;;5033268;28;20495;-70
2022/06/30 12:15:08;;;;;;;13.15;7.15;;;30.30;66.80;;;;;;5033219;28;20051;-72
2022/06/30 12:17:38;;;;;;;12.60;6.70;;;30.30;62.80;;;;;;5031943;28;20387;-70
2022/06/30 12:20:07;;;;;;;10.70;7.03;;;30.30;61.80;;;;;;5033211;28;20360;-71
2022/06/30 12:22:34;;;;;;;10.20;6.57;;;30.30;64.70;;;;;;5031877;28;20064;-70
2022/06/30 12:25:00;;;;;;;11.80;6.80;;;30.30;64.20;;;;;;5033130;28;20108;-70
2022/06/30 12:27:45;;;;;;;8.57;5.25;;;30.30;63.60;;;;;;5033140;28;20097;-70
2022/06/30 12:30:18;;;;;;;7.95;5.50;;;30.30;62.30;;;;;;5032958;28;20107;-69
2022/06/30 12:32:53;;;;;;;8.82;5.90;;;30.40;65.20;;;;;;5033208;28;20053;-70
2022/06/30 12:35:22;;;;;;;6.85;5.00;;;30.50;66.50;;;;;;5032982;28;20060;-71
2022/06/30 12:37:48;;;;;;;6.25;4.63;;;30.60;63.90;;;;;;5032865;28;20380;-70
2022/06/30 12:40:22;;;;;;;9.98;4.40;;;30.60;64.90;;;;;;5031573;28;20022;-69
2022/06/30 12:42:53;;;;;;;8.75;4.43;;;30.70;61.30;;;;;;5032888;28;20049;-69
2022/06/30 12:45:46;;;;;;;7.35;3.90;;;30.80;60.40;;;;;;5032554;28;20041;-71
2022/06/30 12:48:15;;;;;;;7.13;3.67;;;30.80;62.60;;;;;;5032651;28;20053;-69